sensor_id;sensor_type;location;lat;lon;timestamp;pressure;altitude;pressure_sealevel;temperature;humidity
82953;BME280;74888;40.196;44.560;2024-03-02T00:00:17;87577.13;;;4.54;33.22
82953;BME280;74888;40.196;44.560;2024-03-02T00:02:55;87580.13;;;4.61;33.01
82953;BME280;74888;40.196;44.560;2024-03-02T00:05:22;87569.91;;;4.58;33.16
82953;BME280;74888;40.196;44.560;2024-03-02T00:07:54;87568.63;;;4.53;33.36
82953;BME280;74888;40.196;44.560;2024-03-02T00:10:37;87574.22;;;4.61;33.11
82953;BME280;74888;40.196;44.560;2024-03-02T00:13:05;87570.19;;;4.60;32.96
82953;BME280;74888;40.196;44.560;2024-03-02T00:15:48;87571.59;;;4.61;32.61
82953;BME280;74888;40.196;44.560;2024-03-02T00:20:57;87560.31;;;4.64;32.63
82953;BME280;74888;40.196;44.560;2024-03-02T00:23:24;87560.16;;;4.67;32.44
82953;BME280;74888;40.196;44.560;2024-03-02T00:25:53;87561.47;;;4.72;32.49
82953;BME280;74888;40.196;44.560;2024-03-02T00:28:21;87562.56;;;4.80;32.61
82953;BME280;74888;40.196;44.560;2024-03-02T00:30:59;87557.84;;;4.93;31.92
82953;BME280;74888;40.196;44.560;2024-03-02T00:33:43;87568.47;;;5.04;31.53
82953;BME280;74888;40.196;44.560;2024-03-02T00:36:10;87560.94;;;5.06;31.32
82953;BME280;74888;40.196;44.560;2024-03-02T00:38:44;87547.13;;;5.00;31.24
82953;BME280;74888;40.196;44.560;2024-03-02T00:41:25;87545.78;;;5.04;31.28
82953;BME280;74888;40.196;44.560;2024-03-02T00:44:04;87546.69;;;5.01;31.40
82953;BME280;74888;40.196;44.560;2024-03-02T00:46:37;87556.31;;;4.86;31.65
82953;BME280;74888;40.196;44.560;2024-03-02T00:51:48;87547.91;;;4.91;31.74
82953;BME280;74888;40.196;44.560;2024-03-02T00:54:15;87551.47;;;4.94;31.93
82953;BME280;74888;40.196;44.560;2024-03-02T00:56:44;87550.38;;;4.86;31.97
82953;BME280;74888;40.196;44.560;2024-03-02T00:59:10;87552.09;;;4.89;32.50
82953;BME280;74888;40.196;44.560;2024-03-02T01:01:36;87566.22;;;4.73;32.88
82953;BME280;74888;40.196;44.560;2024-03-02T01:04:03;87559.88;;;4.65;32.58
82953;BME280;74888;40.196;44.560;2024-03-02T01:06:30;87557.03;;;4.31;32.95
82953;BME280;74888;40.196;44.560;2024-03-02T01:08:56;87560.00;;;4.38;32.86
82953;BME280;74888;40.196;44.560;2024-03-02T01:11:22;87549.59;;;4.47;33.15
82953;BME280;74888;40.196;44.560;2024-03-02T01:13:47;87550.81;;;4.61;33.22
82953;BME280;74888;40.196;44.560;2024-03-02T01:16:13;87550.09;;;4.60;32.84
82953;BME280;74888;40.196;44.560;2024-03-02T01:18:39;87541.91;;;4.53;33.29
82953;BME280;74888;40.196;44.560;2024-03-02T01:21:05;87546.81;;;4.51;33.42
82953;BME280;74888;40.196;44.560;2024-03-02T01:23:33;87544.53;;;4.44;33.34
82953;BME280;74888;40.196;44.560;2024-03-02T01:25:58;87545.59;;;4.37;33.63
82953;BME280;74888;40.196;44.560;2024-03-02T01:28:24;87549.75;;;4.44;33.43
82953;BME280;74888;40.196;44.560;2024-03-02T01:30:49;87546.31;;;4.38;34.01
82953;BME280;74888;40.196;44.560;2024-03-02T01:33:18;87537.72;;;4.23;34.40
82953;BME280;74888;40.196;44.560;2024-03-02T01:35:45;87533.97;;;4.15;34.00
82953;BME280;74888;40.196;44.560;2024-03-02T01:38:11;87539.63;;;4.13;33.83
82953;BME280;74888;40.196;44.560;2024-03-02T01:40:38;87542.91;;;4.23;33.88
82953;BME280;74888;40.196;44.560;2024-03-02T01:43:05;87542.84;;;4.32;33.56
82953;BME280;74888;40.196;44.560;2024-03-02T01:45:31;87540.19;;;4.50;34.32
82953;BME280;74888;40.196;44.560;2024-03-02T01:47:57;87536.88;;;4.49;34.42
82953;BME280;74888;40.196;44.560;2024-03-02T01:50:34;87539.19;;;4.47;34.28
82953;BME280;74888;40.196;44.560;2024-03-02T01:53:00;87547.56;;;4.51;33.51
82953;BME280;74888;40.196;44.560;2024-03-02T01:55:30;87543.63;;;4.56;34.09
82953;BME280;74888;40.196;44.560;2024-03-02T01:57:58;87537.53;;;4.59;33.78
82953;BME280;74888;40.196;44.560;2024-03-02T02:00:25;87549.09;;;4.58;34.20
82953;BME280;74888;40.196;44.560;2024-03-02T02:02:53;87540.25;;;4.32;34.68
82953;BME280;74888;40.196;44.560;2024-03-02T02:05:23;87533.50;;;4.25;34.30
82953;BME280;74888;40.196;44.560;2024-03-02T02:07:49;87535.06;;;4.32;34.26
82953;BME280;74888;40.196;44.560;2024-03-02T02:10:15;87541.41;;;4.40;34.32
82953;BME280;74888;40.196;44.560;2024-03-02T02:12:41;87538.38;;;4.41;34.60
82953;BME280;74888;40.196;44.560;2024-03-02T02:15:28;87541.41;;;4.40;34.81
82953;BME280;74888;40.196;44.560;2024-03-02T02:17:56;87543.50;;;4.18;35.04
82953;BME280;74888;40.196;44.560;2024-03-02T02:20:27;87541.44;;;3.89;35.09
82953;BME280;74888;40.196;44.560;2024-03-02T02:23:04;87543.44;;;3.94;34.81
82953;BME280;74888;40.196;44.560;2024-03-02T02:25:31;87537.09;;;3.95;35.15
82953;BME280;74888;40.196;44.560;2024-03-02T02:27:57;87524.13;;;3.86;35.18
82953;BME280;74888;40.196;44.560;2024-03-02T02:30:27;87525.28;;;3.94;35.24
82953;BME280;74888;40.196;44.560;2024-03-02T02:32:55;87515.84;;;4.06;34.58
82953;BME280;74888;40.196;44.560;2024-03-02T02:35:31;87513.53;;;4.08;34.73
82953;BME280;74888;40.196;44.560;2024-03-02T02:37:58;87527.50;;;4.10;34.21
82953;BME280;74888;40.196;44.560;2024-03-02T02:40:28;87530.16;;;4.01;35.24
82953;BME280;74888;40.196;44.560;2024-03-02T02:42:57;87531.91;;;3.95;35.31
82953;BME280;74888;40.196;44.560;2024-03-02T02:45:24;87521.13;;;3.78;35.44
82953;BME280;74888;40.196;44.560;2024-03-02T02:47:50;87514.91;;;3.85;35.41
82953;BME280;74888;40.196;44.560;2024-03-02T02:50:16;87506.66;;;3.96;35.11
82953;BME280;74888;40.196;44.560;2024-03-02T02:52:42;87499.41;;;4.00;34.64
82953;BME280;74888;40.196;44.560;2024-03-02T02:55:12;87502.00;;;4.00;35.28
82953;BME280;74888;40.196;44.560;2024-03-02T02:57:42;87503.34;;;3.95;35.26
82953;BME280;74888;40.196;44.560;2024-03-02T03:00:11;87506.59;;;3.72;36.67
82953;BME280;74888;40.196;44.560;2024-03-02T03:02:46;87498.63;;;3.25;37.39
82953;BME280;74888;40.196;44.560;2024-03-02T03:05:13;87501.91;;;3.43;36.22
82953;BME280;74888;40.196;44.560;2024-03-02T03:07:40;87491.16;;;3.68;35.43
82953;BME280;74888;40.196;44.560;2024-03-02T03:10:07;87496.00;;;3.85;35.02
82953;BME280;74888;40.196;44.560;2024-03-02T03:12:33;87488.47;;;3.96;34.98
82953;BME280;74888;40.196;44.560;2024-03-02T03:14:59;87485.56;;;4.03;34.71
82953;BME280;74888;40.196;44.560;2024-03-02T03:17:26;87491.44;;;4.12;34.50
82953;BME280;74888;40.196;44.560;2024-03-02T03:19:52;87484.16;;;4.25;34.08
82953;BME280;74888;40.196;44.560;2024-03-02T03:22:25;87489.84;;;4.38;35.05
82953;BME280;74888;40.196;44.560;2024-03-02T03:24:51;87496.78;;;4.41;33.85
82953;BME280;74888;40.196;44.560;2024-03-02T03:27:16;87491.31;;;4.39;33.88
82953;BME280;74888;40.196;44.560;2024-03-02T03:29:43;87485.84;;;4.37;34.21
82953;BME280;74888;40.196;44.560;2024-03-02T03:32:09;87484.94;;;4.40;33.98
82953;BME280;74888;40.196;44.560;2024-03-02T03:34:37;87483.47;;;4.48;33.94
82953;BME280;74888;40.196;44.560;2024-03-02T03:37:03;87474.34;;;4.53;34.01
82953;BME280;74888;40.196;44.560;2024-03-02T03:39:29;87489.63;;;4.60;33.61
82953;BME280;74888;40.196;44.560;2024-03-02T03:41:55;87478.22;;;4.57;33.37
82953;BME280;74888;40.196;44.560;2024-03-02T03:44:27;87499.59;;;4.52;33.79
82953;BME280;74888;40.196;44.560;2024-03-02T03:46:55;87504.16;;;4.43;33.79
82953;BME280;74888;40.196;44.560;2024-03-02T03:49:30;87501.75;;;4.30;33.96
82953;BME280;74888;40.196;44.560;2024-03-02T03:51:57;87508.38;;;4.31;34.38
82953;BME280;74888;40.196;44.560;2024-03-02T03:54:23;87500.25;;;4.38;34.48
82953;BME280;74888;40.196;44.560;2024-03-02T03:56:48;87500.78;;;4.51;33.88
82953;BME280;74888;40.196;44.560;2024-03-02T04:01:45;87502.88;;;4.62;34.06
82953;BME280;74888;40.196;44.560;2024-03-02T04:04:12;87510.50;;;4.65;33.62
82953;BME280;74888;40.196;44.560;2024-03-02T04:06:39;87507.19;;;4.65;34.32
82953;BME280;74888;40.196;44.560;2024-03-02T04:09:05;87514.66;;;4.72;34.29
82953;BME280;74888;40.196;44.560;2024-03-02T04:11:31;87502.03;;;4.79;33.53
82953;BME280;74888;40.196;44.560;2024-03-02T04:13:58;87506.19;;;4.86;33.34
82953;BME280;74888;40.196;44.560;2024-03-02T04:16:28;87500.03;;;4.98;33.84
82953;BME280;74888;40.196;44.560;2024-03-02T04:18:55;87506.25;;;5.00;33.62
82953;BME280;74888;40.196;44.560;2024-03-02T04:21:23;87511.88;;;4.99;33.21
82953;BME280;74888;40.196;44.560;2024-03-02T04:23:49;87516.97;;;4.93;33.72
82953;BME280;74888;40.196;44.560;2024-03-02T04:26:15;87513.16;;;5.03;33.41
82953;BME280;74888;40.196;44.560;2024-03-02T04:28:46;87509.50;;;5.10;33.54
82953;BME280;74888;40.196;44.560;2024-03-02T04:31:16;87506.47;;;5.26;32.83
82953;BME280;74888;40.196;44.560;2024-03-02T04:33:46;87511.44;;;5.53;32.57
82953;BME280;74888;40.196;44.560;2024-03-02T04:36:12;87512.25;;;5.74;33.17
82953;BME280;74888;40.196;44.560;2024-03-02T04:38:38;87510.72;;;5.82;32.86
82953;BME280;74888;40.196;44.560;2024-03-02T04:41:04;87510.63;;;5.62;32.41
82953;BME280;74888;40.196;44.560;2024-03-02T04:43:34;87515.22;;;5.52;33.02
82953;BME280;74888;40.196;44.560;2024-03-02T04:46:03;87512.16;;;5.54;33.47
82953;BME280;74888;40.196;44.560;2024-03-02T04:48:29;87507.22;;;5.70;33.32
82953;BME280;74888;40.196;44.560;2024-03-02T04:50:56;87506.69;;;5.81;32.84
82953;BME280;74888;40.196;44.560;2024-03-02T04:53:21;87509.13;;;5.99;33.65
82953;BME280;74888;40.196;44.560;2024-03-02T04:55:47;87498.44;;;6.11;32.26
82953;BME280;74888;40.196;44.560;2024-03-02T04:58:31;87504.50;;;6.38;32.30
82953;BME280;74888;40.196;44.560;2024-03-02T05:00:56;87503.38;;;6.59;32.33
82953;BME280;74888;40.196;44.560;2024-03-02T05:03:22;87497.19;;;6.76;31.93
82953;BME280;74888;40.196;44.560;2024-03-02T05:05:49;87501.91;;;6.92;31.36
82953;BME280;74888;40.196;44.560;2024-03-02T05:08:16;87501.25;;;7.17;30.99
82953;BME280;74888;40.196;44.560;2024-03-02T05:10:44;87507.41;;;7.34;31.02
82953;BME280;74888;40.196;44.560;2024-03-02T05:13:10;87505.41;;;7.49;31.57
82953;BME280;74888;40.196;44.560;2024-03-02T05:15:36;87510.03;;;7.60;31.72
82953;BME280;74888;40.196;44.560;2024-03-02T05:18:05;87510.28;;;7.62;31.21
82953;BME280;74888;40.196;44.560;2024-03-02T05:20:31;87511.13;;;7.74;31.44
82953;BME280;74888;40.196;44.560;2024-03-02T05:22:57;87508.34;;;7.83;31.27
82953;BME280;74888;40.196;44.560;2024-03-02T05:25:22;87506.06;;;7.96;31.02
82953;BME280;74888;40.196;44.560;2024-03-02T05:27:49;87514.78;;;8.13;30.44
82953;BME280;74888;40.196;44.560;2024-03-02T05:30:15;87507.97;;;8.21;30.55
82953;BME280;74888;40.196;44.560;2024-03-02T05:32:41;87506.88;;;8.27;30.52
82953;BME280;74888;40.196;44.560;2024-03-02T05:35:08;87511.44;;;8.38;30.24
82953;BME280;74888;40.196;44.560;2024-03-02T05:37:36;87516.97;;;8.45;29.50
82953;BME280;74888;40.196;44.560;2024-03-02T05:40:02;87520.34;;;8.51;29.53
82953;BME280;74888;40.196;44.560;2024-03-02T05:42:30;87522.78;;;8.60;29.10
82953;BME280;74888;40.196;44.560;2024-03-02T05:44:56;87523.09;;;8.68;28.90
82953;BME280;74888;40.196;44.560;2024-03-02T05:47:21;87523.41;;;8.81;28.60
82953;BME280;74888;40.196;44.560;2024-03-02T05:49:52;87532.25;;;8.89;28.05
82953;BME280;74888;40.196;44.560;2024-03-02T05:52:18;87521.31;;;8.91;28.08
82953;BME280;74888;40.196;44.560;2024-03-02T05:54:45;87518.94;;;8.93;27.29
82953;BME280;74888;40.196;44.560;2024-03-02T05:57:10;87521.59;;;9.04;28.23
82953;BME280;74888;40.196;44.560;2024-03-02T05:59:42;87525.47;;;9.14;27.97
82953;BME280;74888;40.196;44.560;2024-03-02T06:02:11;87536.22;;;9.21;27.73
82953;BME280;74888;40.196;44.560;2024-03-02T06:04:37;87525.78;;;9.27;27.71
82953;BME280;74888;40.196;44.560;2024-03-02T06:07:02;87523.19;;;9.38;27.60
82953;BME280;74888;40.196;44.560;2024-03-02T06:09:31;87524.69;;;9.50;27.42
82953;BME280;74888;40.196;44.560;2024-03-02T06:12:00;87515.41;;;9.60;26.96
82953;BME280;74888;40.196;44.560;2024-03-02T06:14:26;87527.59;;;9.68;27.46
82953;BME280;74888;40.196;44.560;2024-03-02T06:16:52;87516.66;;;9.81;26.55
82953;BME280;74888;40.196;44.560;2024-03-02T06:19:20;87515.00;;;9.78;26.18
82953;BME280;74888;40.196;44.560;2024-03-02T06:21:46;87518.59;;;9.80;26.66
82953;BME280;74888;40.196;44.560;2024-03-02T06:24:12;87513.59;;;9.88;27.16
82953;BME280;74888;40.196;44.560;2024-03-02T06:26:39;87513.84;;;9.95;26.13
82953;BME280;74888;40.196;44.560;2024-03-02T06:29:06;87513.88;;;10.01;26.93
82953;BME280;74888;40.196;44.560;2024-03-02T06:31:33;87518.88;;;9.99;26.71
82953;BME280;74888;40.196;44.560;2024-03-02T06:33:58;87515.03;;;10.00;26.89
82953;BME280;74888;40.196;44.560;2024-03-02T06:36:24;87515.09;;;10.11;26.12
82953;BME280;74888;40.196;44.560;2024-03-02T06:38:50;87518.19;;;10.10;25.96
82953;BME280;74888;40.196;44.560;2024-03-02T06:41:15;87512.47;;;10.11;26.23
82953;BME280;74888;40.196;44.560;2024-03-02T06:43:41;87507.25;;;10.11;25.92
82953;BME280;74888;40.196;44.560;2024-03-02T06:46:08;87512.69;;;10.13;26.21
82953;BME280;74888;40.196;44.560;2024-03-02T06:48:36;87512.25;;;10.15;26.06
82953;BME280;74888;40.196;44.560;2024-03-02T06:51:01;87507.00;;;10.20;26.99
82953;BME280;74888;40.196;44.560;2024-03-02T06:53:27;87509.38;;;10.24;26.66
82953;BME280;74888;40.196;44.560;2024-03-02T06:55:53;87505.34;;;10.23;26.46
82953;BME280;74888;40.196;44.560;2024-03-02T06:58:19;87513.94;;;10.34;26.68
82953;BME280;74888;40.196;44.560;2024-03-02T07:00:45;87511.53;;;10.42;26.67
82953;BME280;74888;40.196;44.560;2024-03-02T07:03:14;87514.16;;;10.42;26.21
82953;BME280;74888;40.196;44.560;2024-03-02T07:05:40;87498.91;;;10.35;26.88
82953;BME280;74888;40.196;44.560;2024-03-02T07:08:06;87507.72;;;10.37;26.92
82953;BME280;74888;40.196;44.560;2024-03-02T07:10:34;87498.69;;;10.38;26.74
82953;BME280;74888;40.196;44.560;2024-03-02T07:12:59;87507.97;;;10.45;26.92
82953;BME280;74888;40.196;44.560;2024-03-02T07:15:25;87496.53;;;10.53;27.27
82953;BME280;74888;40.196;44.560;2024-03-02T07:18:10;87494.38;;;10.63;26.51
82953;BME280;74888;40.196;44.560;2024-03-02T07:20:36;87500.34;;;10.63;26.73
82953;BME280;74888;40.196;44.560;2024-03-02T07:23:04;87501.50;;;10.68;26.82
82953;BME280;74888;40.196;44.560;2024-03-02T07:25:31;87503.41;;;10.67;26.66
82953;BME280;74888;40.196;44.560;2024-03-02T07:27:57;87495.31;;;10.76;26.58
82953;BME280;74888;40.196;44.560;2024-03-02T07:30:23;87493.63;;;10.84;26.15
82953;BME280;74888;40.196;44.560;2024-03-02T07:32:52;87479.03;;;10.89;25.93
82953;BME280;74888;40.196;44.560;2024-03-02T07:35:18;87482.38;;;10.95;26.38
82953;BME280;74888;40.196;44.560;2024-03-02T07:37:44;87477.13;;;11.00;26.02
82953;BME280;74888;40.196;44.560;2024-03-02T07:40:10;87469.47;;;11.02;25.66
82953;BME280;74888;40.196;44.560;2024-03-02T07:42:38;87470.19;;;11.08;26.12
82953;BME280;74888;40.196;44.560;2024-03-02T07:45:06;87470.63;;;11.12;25.88
82953;BME280;74888;40.196;44.560;2024-03-02T07:47:33;87462.03;;;11.17;25.39
82953;BME280;74888;40.196;44.560;2024-03-02T07:49:59;87461.06;;;11.21;25.74
82953;BME280;74888;40.196;44.560;2024-03-02T07:52:25;87452.47;;;11.26;25.76
82953;BME280;74888;40.196;44.560;2024-03-02T07:54:52;87454.38;;;11.25;25.53
82953;BME280;74888;40.196;44.560;2024-03-02T07:57:18;87445.25;;;11.37;25.38
82953;BME280;74888;40.196;44.560;2024-03-02T07:59:44;87443.06;;;11.41;25.75
82953;BME280;74888;40.196;44.560;2024-03-02T08:02:11;87454.75;;;11.51;25.31
82953;BME280;74888;40.196;44.560;2024-03-02T08:04:38;87445.88;;;11.54;24.74
82953;BME280;74888;40.196;44.560;2024-03-02T08:07:06;87445.88;;;11.54;25.41
82953;BME280;74888;40.196;44.560;2024-03-02T08:09:31;87441.81;;;11.53;24.97
82953;BME280;74888;40.196;44.560;2024-03-02T08:11:57;87437.28;;;11.54;24.65
82953;BME280;74888;40.196;44.560;2024-03-02T08:14:26;87432.03;;;11.48;25.40
82953;BME280;74888;40.196;44.560;2024-03-02T08:16:52;87428.00;;;11.47;24.42
82953;BME280;74888;40.196;44.560;2024-03-02T08:19:18;87426.53;;;11.52;25.20
82953;BME280;74888;40.196;44.560;2024-03-02T08:21:44;87428.47;;;11.51;25.45
82953;BME280;74888;40.196;44.560;2024-03-02T08:24:10;87422.25;;;11.54;24.74
82953;BME280;74888;40.196;44.560;2024-03-02T08:26:36;87416.97;;;11.54;24.95
82953;BME280;74888;40.196;44.560;2024-03-02T08:29:02;87419.34;;;11.58;24.46
82953;BME280;74888;40.196;44.560;2024-03-02T08:31:29;87415.53;;;11.64;24.47
82953;BME280;74888;40.196;44.560;2024-03-02T08:33:55;87412.16;;;11.58;24.84
82953;BME280;74888;40.196;44.560;2024-03-02T08:36:22;87404.09;;;11.51;24.63
82953;BME280;74888;40.196;44.560;2024-03-02T08:38:49;87404.34;;;11.47;23.99
82953;BME280;74888;40.196;44.560;2024-03-02T08:41:16;87398.13;;;11.50;23.76
82953;BME280;74888;40.196;44.560;2024-03-02T08:43:42;87392.84;;;11.50;24.77
82953;BME280;74888;40.196;44.560;2024-03-02T08:46:08;87386.59;;;11.59;24.36
82953;BME280;74888;40.196;44.560;2024-03-02T08:48:34;87384.66;;;11.65;24.76
82953;BME280;74888;40.196;44.560;2024-03-02T08:51:00;87383.47;;;11.71;24.17
82953;BME280;74888;40.196;44.560;2024-03-02T08:53:26;87386.78;;;11.72;24.87
82953;BME280;74888;40.196;44.560;2024-03-02T08:55:52;87384.63;;;11.70;24.75
82953;BME280;74888;40.196;44.560;2024-03-02T08:58:17;87374.63;;;11.63;24.57
82953;BME280;74888;40.196;44.560;2024-03-02T09:00:49;87376.09;;;11.59;24.05
82953;BME280;74888;40.196;44.560;2024-03-02T09:03:20;87374.66;;;11.58;24.64
82953;BME280;74888;40.196;44.560;2024-03-02T09:05:47;87370.09;;;11.58;25.22
82953;BME280;74888;40.196;44.560;2024-03-02T09:08:13;87362.94;;;11.59;25.03
82953;BME280;74888;40.196;44.560;2024-03-02T09:10:38;87364.41;;;11.54;24.48
82953;BME280;74888;40.196;44.560;2024-03-02T09:13:05;87363.19;;;11.55;24.05
82953;BME280;74888;40.196;44.560;2024-03-02T09:15:31;87350.56;;;11.48;24.76
82953;BME280;74888;40.196;44.560;2024-03-02T09:17:56;87357.78;;;11.48;25.21
82953;BME280;74888;40.196;44.560;2024-03-02T09:20:22;87352.28;;;11.46;25.05
82953;BME280;74888;40.196;44.560;2024-03-02T09:22:49;87354.69;;;11.44;25.42
82953;BME280;74888;40.196;44.560;2024-03-02T09:25:15;87344.16;;;11.44;25.39
82953;BME280;74888;40.196;44.560;2024-03-02T09:27:41;87343.00;;;11.39;25.97
82953;BME280;74888;40.196;44.560;2024-03-02T09:30:14;87344.44;;;11.35;25.30
82953;BME280;74888;40.196;44.560;2024-03-02T09:32:40;87340.16;;;11.37;25.43
82953;BME280;74888;40.196;44.560;2024-03-02T09:35:07;87341.56;;;11.38;25.31
82953;BME280;74888;40.196;44.560;2024-03-02T09:37:36;87341.56;;;11.38;25.71
82953;BME280;74888;40.196;44.560;2024-03-02T09:40:03;87347.78;;;11.41;25.54
82953;BME280;74888;40.196;44.560;2024-03-02T09:42:32;87337.97;;;11.41;24.92
82953;BME280;74888;40.196;44.560;2024-03-02T09:45:04;87336.34;;;11.33;25.75
82953;BME280;74888;40.196;44.560;2024-03-02T09:47:31;87333.28;;;11.23;25.94
82953;BME280;74888;40.196;44.560;2024-03-02T09:49:58;87328.94;;;11.31;25.92
82953;BME280;74888;40.196;44.560;2024-03-02T09:52:24;87328.19;;;11.36;25.50
82953;BME280;74888;40.196;44.560;2024-03-02T09:54:56;87325.31;;;11.40;25.61
82953;BME280;74888;40.196;44.560;2024-03-02T09:57:23;87323.41;;;11.40;25.92
82953;BME280;74888;40.196;44.560;2024-03-02T09:59:49;87319.88;;;11.32;26.23
82953;BME280;74888;40.196;44.560;2024-03-02T10:02:19;87319.88;;;11.32;25.88
82953;BME280;74888;40.196;44.560;2024-03-02T10:04:49;87322.19;;;11.41;25.41
82953;BME280;74888;40.196;44.560;2024-03-02T10:07:17;87316.66;;;11.50;25.12
82953;BME280;74888;40.196;44.560;2024-03-02T10:09:45;87311.91;;;11.43;24.90
82953;BME280;74888;40.196;44.560;2024-03-02T10:12:18;87313.84;;;11.43;24.58
82953;BME280;74888;40.196;44.560;2024-03-02T10:14:44;87304.75;;;11.44;24.92
82953;BME280;74888;40.196;44.560;2024-03-02T10:17:12;87308.03;;;11.50;25.22
82953;BME280;74888;40.196;44.560;2024-03-02T10:19:38;87305.63;;;11.57;24.47
82953;BME280;74888;40.196;44.560;2024-03-02T10:22:08;87303.06;;;11.46;24.80
82953;BME280;74888;40.196;44.560;2024-03-02T10:24:44;87302.84;;;11.44;24.72
82953;BME280;74888;40.196;44.560;2024-03-02T10:27:30;87294.59;;;11.59;24.08
82953;BME280;74888;40.196;44.560;2024-03-02T10:29:59;87288.38;;;11.62;24.81
82953;BME280;74888;40.196;44.560;2024-03-02T10:32:29;87295.03;;;11.68;24.84
82953;BME280;74888;40.196;44.560;2024-03-02T10:34:54;87286.63;;;11.75;24.57
82953;BME280;74888;40.196;44.560;2024-03-02T10:37:21;87292.59;;;11.76;25.10
82953;BME280;74888;40.196;44.560;2024-03-02T10:39:47;87289.31;;;11.70;24.43
82953;BME280;74888;40.196;44.560;2024-03-02T10:42:14;87285.25;;;11.63;24.22
82953;BME280;74888;40.196;44.560;2024-03-02T10:44:40;87286.72;;;11.64;24.87
82953;BME280;74888;40.196;44.560;2024-03-02T10:47:08;87288.75;;;11.77;24.98
82953;BME280;74888;40.196;44.560;2024-03-02T10:49:34;87277.16;;;11.91;24.65
82953;BME280;74888;40.196;44.560;2024-03-02T10:52:00;87277.13;;;11.96;24.26
82953;BME280;74888;40.196;44.560;2024-03-02T10:54:26;87268.34;;;12.12;23.95
82953;BME280;74888;40.196;44.560;2024-03-02T10:56:55;87273.63;;;12.12;23.73
82953;BME280;74888;40.196;44.560;2024-03-02T11:01:59;87267.66;;;12.36;22.51
82953;BME280;74888;40.196;44.560;2024-03-02T11:04:29;87269.69;;;12.49;23.09
82953;BME280;74888;40.196;44.560;2024-03-02T11:07:06;87266.13;;;12.65;23.65
82953;BME280;74888;40.196;44.560;2024-03-02T11:09:38;87262.94;;;12.72;23.19
82953;BME280;74888;40.196;44.560;2024-03-02T11:12:23;87257.47;;;12.88;21.86
82953;BME280;74888;40.196;44.560;2024-03-02T11:14:52;87253.28;;;12.98;22.76
82953;BME280;74888;40.196;44.560;2024-03-02T11:17:20;87244.75;;;13.11;22.41
82953;BME280;74888;40.196;44.560;2024-03-02T11:19:49;87245.09;;;13.20;22.37
82953;BME280;74888;40.196;44.560;2024-03-02T11:22:16;87253.66;;;13.26;22.08
82953;BME280;74888;40.196;44.560;2024-03-02T11:24:49;87250.75;;;13.11;21.64
82953;BME280;74888;40.196;44.560;2024-03-02T11:33:08;87252.44;;;13.09;22.18
82953;BME280;74888;40.196;44.560;2024-03-02T11:35:35;87241.84;;;13.14;22.22
82953;BME280;74888;40.196;44.560;2024-03-02T11:38:04;87248.81;;;13.12;21.81
82953;BME280;74888;40.196;44.560;2024-03-02T11:40:31;87243.53;;;12.93;22.56
82953;BME280;74888;40.196;44.560;2024-03-02T11:42:59;87242.16;;;12.87;22.04
82953;BME280;74888;40.196;44.560;2024-03-02T11:45:28;87238.63;;;12.84;21.47
82953;BME280;74888;40.196;44.560;2024-03-02T11:47:55;87240.59;;;12.78;21.46
82953;BME280;74888;40.196;44.560;2024-03-02T11:50:41;87238.44;;;12.58;21.29
82953;BME280;74888;40.196;44.560;2024-03-02T11:53:09;87243.34;;;12.49;22.08
82953;BME280;74888;40.196;44.560;2024-03-02T11:55:36;87241.75;;;12.64;22.39
82953;BME280;74888;40.196;44.560;2024-03-02T11:58:04;87225.31;;;12.77;24.77
82953;BME280;74888;40.196;44.560;2024-03-02T12:00:30;87230.50;;;12.82;24.04
82953;BME280;74888;40.196;44.560;2024-03-02T12:03:08;87229.50;;;12.85;24.74
82953;BME280;74888;40.196;44.560;2024-03-02T12:05:34;87224.38;;;12.93;22.10
82953;BME280;74888;40.196;44.560;2024-03-02T12:08:03;87221.94;;;12.95;22.38
82953;BME280;74888;40.196;44.560;2024-03-02T12:10:30;87218.19;;;13.09;23.67
82953;BME280;74888;40.196;44.560;2024-03-02T12:13:04;87217.66;;;13.29;25.54
82953;BME280;74888;40.196;44.560;2024-03-02T12:15:32;87219.97;;;13.51;23.14
82953;BME280;74888;40.196;44.560;2024-03-02T12:17:59;87212.53;;;13.68;21.40
82953;BME280;74888;40.196;44.560;2024-03-02T12:20:27;87206.75;;;13.70;21.52
82953;BME280;74888;40.196;44.560;2024-03-02T12:22:57;87212.09;;;13.64;21.54
82953;BME280;74888;40.196;44.560;2024-03-02T12:25:24;87206.13;;;13.64;21.81
82953;BME280;74888;40.196;44.560;2024-03-02T12:27:53;87208.06;;;13.76;22.01
82953;BME280;74888;40.196;44.560;2024-03-02T12:30:20;87193.66;;;13.77;20.72
82953;BME280;74888;40.196;44.560;2024-03-02T12:32:49;87197.53;;;13.89;21.07
82953;BME280;74888;40.196;44.560;2024-03-02T12:35:15;87206.16;;;13.90;20.98
82953;BME280;74888;40.196;44.560;2024-03-02T12:37:50;87200.38;;;13.91;20.52
82953;BME280;74888;40.196;44.560;2024-03-02T12:40:18;87201.31;;;13.94;21.29
82953;BME280;74888;40.196;44.560;2024-03-02T12:42:46;87194.59;;;13.93;20.79
82953;BME280;74888;40.196;44.560;2024-03-02T12:45:13;87197.03;;;13.78;21.27
82953;BME280;74888;40.196;44.560;2024-03-02T12:47:40;87194.56;;;13.67;21.33
82953;BME280;74888;40.196;44.560;2024-03-02T12:50:07;87192.75;;;13.62;21.28
82953;BME280;74888;40.196;44.560;2024-03-02T12:52:33;87191.88;;;13.53;20.77
82953;BME280;74888;40.196;44.560;2024-03-02T12:55:04;87193.41;;;13.49;21.58
82953;BME280;74888;40.196;44.560;2024-03-02T12:57:32;87188.72;;;13.42;20.67
82953;BME280;74888;40.196;44.560;2024-03-02T13:02:28;87178.66;;;13.27;21.11
82953;BME280;74888;40.196;44.560;2024-03-02T13:04:59;87175.38;;;13.21;20.49
82953;BME280;74888;40.196;44.560;2024-03-02T13:07:25;87175.47;;;13.16;21.01
82953;BME280;74888;40.196;44.560;2024-03-02T13:09:52;87173.69;;;13.05;21.09
82953;BME280;74888;40.196;44.560;2024-03-02T13:12:19;87173.34;;;12.96;21.48
82953;BME280;74888;40.196;44.560;2024-03-02T13:14:51;87171.22;;;12.94;20.44
82953;BME280;74888;40.196;44.560;2024-03-02T13:17:21;87166.72;;;12.89;20.79